N325CJ EKBI-EINN
Flight info
| Callsign | N325CJ |
|---|---|
| Flight time | N/A |
| Altitude | 38000 |
| Route | N0450F380 ROPAL UL975 DESIG UL70 BAGSO DCT DUB DCT PELIG DCT ENOKU DCT DIGAN |
| Aircraft | C25C/M-VGDW/C |
Departure
| Time | 2025-10-09 20:37 |
|---|---|
| Airport | Billund Airport (EKBI) |
Arrival
| Time | N/A |
|---|---|
| Airport | Shannon Airport (EINN) |
| Time | Latitude | Longitude | Altitude | Speed | Heading |
|---|---|---|---|---|---|
| 2025-10-09 20:24 | 55.73762 | 9.13840 | 210 ft | 0 kts | 179° |
| 2025-10-09 20:32 | 55.73783 | 9.13837 | 213 ft | 2 kts | 172° |
| 2025-10-09 20:32 | 55.73814 | 9.13818 | 213 ft | 2 kts | 143° |
| 2025-10-09 20:33 | 55.73824 | 9.13796 | 210 ft | 2 kts | 112° |
| 2025-10-09 20:33 | 55.73827 | 9.13767 | 213 ft | 0 kts | 85° |
| 2025-10-09 20:34 | 55.73832 | 9.13867 | 212 ft | 16 kts | 86° |
| 2025-10-09 20:34 | 55.73867 | 9.14533 | 214 ft | 19 kts | 73° |
| 2025-10-09 20:35 | 55.73983 | 9.14965 | 214 ft | 20 kts | 59° |
| 2025-10-09 20:35 | 55.74057 | 9.15493 | 210 ft | 2 kts | 111° |
| 2025-10-09 20:36 | 55.74011 | 9.14491 | 235 ft | 120 kts | 267° |
| 2025-10-09 20:36 | 55.74271 | 9.10773 | 2200 ft | 170 kts | 296° |
| 2025-10-09 20:37 | 55.75787 | 9.07390 | 5508 ft | 179 kts | 309° |
| 2025-10-09 20:37 | 55.76595 | 9.05683 | 6862 ft | 183 kts | 309° |
| 2025-10-09 20:38 | 55.78264 | 9.02141 | 9039 ft | 189 kts | 309° |
| 2025-10-09 20:38 | 55.79710 | 8.95646 | 12081 ft | 206 kts | 273° |
| 2025-10-09 20:39 | 55.78456 | 8.90761 | 14027 ft | 238 kts | 240° |
| 2025-10-09 20:39 | 55.76229 | 8.86270 | 15683 ft | 246 kts | 241° |
| 2025-10-09 20:40 | 55.73940 | 8.81612 | 17335 ft | 254 kts | 241° |
| 2025-10-09 20:40 | 55.71568 | 8.76797 | 18918 ft | 263 kts | 241° |
| 2025-10-09 20:41 | 55.70352 | 8.74336 | 19667 ft | 267 kts | 241° |
| 2025-10-09 20:41 | 55.67880 | 8.69334 | 21165 ft | 276 kts | 240° |
| 2025-10-09 20:42 | 55.65306 | 8.64140 | 22682 ft | 285 kts | 240° |
| 2025-10-09 20:42 | 55.61286 | 8.56049 | 24804 ft | 298 kts | 240° |
| 2025-10-09 20:44 | 55.49440 | 8.32322 | 28222 ft | 376 kts | 238° |
| 2025-10-09 20:46 | 55.40561 | 7.97090 | 28220 ft | 393 kts | 272° |
| 2025-10-09 20:48 | 55.38683 | 7.60526 | 28213 ft | 365 kts | 273° |
| 2025-10-09 20:50 | 55.36777 | 7.25344 | 28227 ft | 360 kts | 272° |
| 2025-10-09 20:52 | 55.34782 | 6.90344 | 28231 ft | 360 kts | 272° |
| 2025-10-09 20:54 | 55.32625 | 6.54454 | 28243 ft | 374 kts | 271° |
| 2025-10-09 20:56 | 55.30329 | 6.18002 | 28248 ft | 376 kts | 271° |
| 2025-10-09 20:58 | 55.27913 | 5.81474 | 28256 ft | 379 kts | 271° |
| 2025-10-09 21:00 | 55.25360 | 5.44565 | 28272 ft | 382 kts | 270° |
| 2025-10-09 21:02 | 55.22680 | 5.07509 | 28283 ft | 384 kts | 270° |
| 2025-10-09 21:04 | 55.20239 | 4.75067 | 28285 ft | 385 kts | 270° |
| 2025-10-09 21:06 | 55.16967 | 4.33318 | 28298 ft | 386 kts | 270° |
| 2025-10-09 21:08 | 55.14174 | 4.00854 | 28300 ft | 392 kts | 263° |
| 2025-10-09 21:10 | 55.00691 | 3.63274 | 28311 ft | 414 kts | 242° |
| 2025-10-09 21:12 | 54.86975 | 3.30969 | 28321 ft | 415 kts | 241° |
| 2025-10-09 21:15 | 54.72084 | 2.94276 | 28325 ft | 411 kts | 246° |
| 2025-10-09 21:16 | 54.61729 | 2.64621 | 28342 ft | 412 kts | 246° |
| 2025-10-09 21:18 | 54.49805 | 2.30913 | 28348 ft | 412 kts | 245° |
| 2025-10-09 21:20 | 54.37779 | 1.97380 | 28356 ft | 413 kts | 245° |
| 2025-10-09 21:22 | 54.26138 | 1.65344 | 28366 ft | 413 kts | 244° |
| 2025-10-09 21:24 | 54.13918 | 1.32164 | 28374 ft | 410 kts | 243° |
| 2025-10-09 21:26 | 54.01712 | 0.99445 | 28381 ft | 409 kts | 243° |
| 2025-10-09 21:28 | 53.89910 | 0.68238 | 28390 ft | 410 kts | 242° |